Time;durP1;ratioP1;P1;durP2;ratioP2;P2;SDS_P1;SDS_P2;PMS_P1;PMS_P2;Temp;Humidity;BMP_temperature;BMP_pressure;BME280_temperature;BME280_humidity;BME280_pressure;Samples;Min_cycle;Max_cycle;Signal;HPM_P1;HPM_P2
2022/12/13 00:00:13;;;;;;;65.63;17.45;;;0.30;99.90;;;;;;4993283;28;20084;-93
2022/12/13 00:02:42;;;;;;;65.97;18.10;;;0.30;99.90;;;;;;4994744;28;20022;-92
2022/12/13 00:05:08;;;;;;;67.25;18.73;;;0.30;99.90;;;;;;4994439;28;20066;-92
2022/12/13 00:07:34;;;;;;;65.40;18.70;;;0.20;99.90;;;;;;4993569;28;20025;-93
2022/12/13 00:10:00;;;;;;;57.95;15.68;;;0.30;99.90;;;;;;4994768;28;20495;-93
2022/12/13 00:12:27;;;;;;;56.40;16.45;;;0.20;99.90;;;;;;4993109;28;20026;-92
2022/12/13 00:14:52;;;;;;;59.10;17.73;;;0.30;99.90;;;;;;4993887;28;20495;-91
2022/12/13 00:17:18;;;;;;;62.65;17.58;;;0.30;99.90;;;;;;4993980;28;20081;-92
2022/12/13 00:19:45;;;;;;;52.28;16.67;;;0.30;99.90;;;;;;4992636;28;20058;-93
2022/12/13 00:22:11;;;;;;;60.10;16.42;;;0.30;99.90;;;;;;4994067;28;20542;-93
2022/12/13 00:24:37;;;;;;;56.53;17.48;;;0.30;99.90;;;;;;4994695;28;20034;-91
2022/12/13 00:27:03;;;;;;;64.75;19.23;;;0.20;99.90;;;;;;4993457;28;20039;-92
2022/12/13 00:29:29;;;;;;;69.72;20.50;;;0.20;99.90;;;;;;4994134;28;20038;-92
2022/12/13 00:31:54;;;;;;;97.03;23.95;;;0.20;99.90;;;;;;4993510;28;20015;-93
2022/12/13 00:34:20;;;;;;;64.25;19.67;;;0.20;99.90;;;;;;4993755;28;20088;-92
2022/12/13 00:36:46;;;;;;;92.35;25.50;;;0.30;99.90;;;;;;4993534;28;20026;-92
2022/12/13 00:39:12;;;;;;;91.53;23.20;;;0.20;99.90;;;;;;4993824;28;20038;-92
2022/12/13 00:41:39;;;;;;;74.00;22.27;;;0.20;99.90;;;;;;4992919;28;20106;-92
2022/12/13 00:44:05;;;;;;;78.38;21.13;;;0.20;99.90;;;;;;4993691;28;20018;-93
2022/12/13 00:46:31;;;;;;;74.88;20.52;;;0.20;99.90;;;;;;4994051;28;20030;-92
2022/12/13 00:48:59;;;;;;;79.15;20.48;;;0.20;99.90;;;;;;4994019;28;20077;-90
2022/12/13 00:51:27;;;;;;;75.95;19.75;;;0.20;99.90;;;;;;4993773;28;20100;-95
2022/12/13 00:53:53;;;;;;;74.55;20.52;;;0.20;99.90;;;;;;4996342;28;20064;-95
2022/12/13 00:56:22;;;;;;;78.47;20.30;;;0.20;99.90;;;;;;4995508;28;20487;-95
2022/12/13 00:58:48;;;;;;;81.32;21.02;;;0.20;99.90;;;;;;4993328;28;20490;-94
2022/12/13 01:01:16;;;;;;;75.13;20.20;;;0.20;99.90;;;;;;4995396;28;20022;-94
2022/12/13 01:03:42;;;;;;;64.78;18.33;;;0.20;99.90;;;;;;5000861;28;20026;-95
2022/12/13 01:06:13;;;;;;;65.75;18.45;;;0.20;99.90;;;;;;5003400;28;20018;-93
2022/12/13 01:08:39;;;;;;;87.85;21.05;;;0.20;99.90;;;;;;4998725;28;20037;-94
2022/12/13 01:11:06;;;;;;;81.53;21.77;;;0.20;99.90;;;;;;4999774;28;20046;-94
2022/12/13 01:13:32;;;;;;;80.35;20.92;;;0.20;99.90;;;;;;4997404;28;20061;-94
2022/12/13 01:16:00;;;;;;;83.07;20.65;;;0.20;99.90;;;;;;4997048;28;20022;-92
2022/12/13 01:18:25;;;;;;;89.80;23.30;;;0.20;99.90;;;;;;4997682;28;20022;-93
2022/12/13 01:21:03;;;;;;;88.97;23.45;;;0.20;99.90;;;;;;4998373;28;20057;-94
2022/12/13 01:23:29;;;;;;;92.65;23.65;;;0.20;99.90;;;;;;4995843;28;20030;-94
2022/12/13 01:25:55;;;;;;;85.22;22.00;;;0.20;99.90;;;;;;4995287;28;20034;-93
2022/12/13 01:28:22;;;;;;;78.35;22.02;;;0.20;99.90;;;;;;4994301;28;20038;-95
2022/12/13 01:30:54;;;;;;;83.13;24.45;;;0.20;99.90;;;;;;4994579;28;20029;-94
2022/12/13 01:33:20;;;;;;;87.65;22.60;;;0.20;99.90;;;;;;4994380;28;20085;-95
2022/12/13 01:35:46;;;;;;;83.68;21.60;;;0.20;99.90;;;;;;4994256;28;20038;-94
2022/12/13 01:38:11;;;;;;;82.72;22.20;;;0.20;99.90;;;;;;4994472;28;20061;-94
2022/12/13 01:40:56;;;;;;;74.00;22.25;;;0.20;99.90;;;;;;4993901;28;20042;-94
2022/12/13 01:43:43;;;;;;;78.43;21.52;;;0.20;99.90;;;;;;5001693;28;20030;-94
2022/12/13 01:46:14;;;;;;;73.07;19.95;;;0.20;99.90;;;;;;4968091;28;20034;-93
2022/12/13 01:48:46;;;;;;;80.00;21.27;;;0.20;99.90;;;;;;4994007;28;20026;-93
2022/12/13 01:51:16;;;;;;;80.22;20.50;;;0.20;99.90;;;;;;4993523;28;20026;-90
2022/12/13 01:53:44;;;;;;;77.03;21.58;;;0.20;99.90;;;;;;4992463;28;20045;-92
2022/12/13 01:56:18;;;;;;;77.47;20.98;;;0.20;99.90;;;;;;4993351;28;20073;-93
2022/12/13 01:58:46;;;;;;;85.18;22.02;;;0.20;99.90;;;;;;4993406;28;20030;-93
2022/12/13 02:01:12;;;;;;;82.32;20.52;;;0.30;99.90;;;;;;4993261;28;20035;-94
2022/12/13 02:03:37;;;;;;;73.78;20.70;;;0.20;99.90;;;;;;4993510;28;20037;-93
2022/12/13 02:06:17;;;;;;;79.00;19.70;;;0.20;99.90;;;;;;4993603;28;20026;-93
2022/12/13 02:08:45;;;;;;;73.03;19.33;;;0.20;99.90;;;;;;4993849;28;20125;-90
2022/12/13 02:11:10;;;;;;;69.38;19.90;;;0.20;99.90;;;;;;4993396;28;20491;-91
2022/12/13 02:13:36;;;;;;;69.90;19.42;;;0.20;99.90;;;;;;4994192;28;20034;-90
2022/12/13 02:16:35;;;;;;;73.88;20.65;;;0.10;99.90;;;;;;4993007;28;20023;-92
2022/12/13 02:19:35;;;;;;;72.15;19.10;;;0.20;99.90;;;;;;4993319;28;20495;-95
2022/12/13 02:22:39;;;;;;;76.50;18.95;;;0.10;99.90;;;;;;4993559;28;20076;-92
2022/12/13 02:25:44;;;;;;;68.38;20.15;;;0.10;99.90;;;;;;4993162;28;20107;-91
2022/12/13 02:28:31;;;;;;;71.57;18.05;;;0.10;99.90;;;;;;4973380;28;20050;-94
2022/12/13 02:31:13;;;;;;;68.70;19.90;;;0.10;99.90;;;;;;4992784;28;20089;-94
2022/12/13 02:33:59;;;;;;;65.82;17.17;;;0.10;99.90;;;;;;4992627;28;20030;-95
2022/12/13 02:36:42;;;;;;;83.75;19.73;;;0.10;99.90;;;;;;4992677;28;20030;-93
2022/12/13 02:39:34;;;;;;;64.25;17.13;;;0.00;99.90;;;;;;4993249;28;20053;-94
2022/12/13 02:42:15;;;;;;;60.25;16.42;;;0.00;99.90;;;;;;4988370;28;20038;-92
2022/12/13 02:45:03;;;;;;;65.32;18.88;;;0.00;99.90;;;;;;4993247;28;20116;-93
2022/12/13 02:47:30;;;;;;;65.47;18.40;;;0.00;99.90;;;;;;4992938;28;20042;-93
2022/12/13 02:50:00;;;;;;;59.03;16.20;;;0.00;99.90;;;;;;4992539;28;20121;-93
2022/12/13 02:52:28;;;;;;;67.10;18.13;;;0.00;99.90;;;;;;4992297;28;20026;-92
2022/12/13 02:54:54;;;;;;;63.63;17.88;;;0.00;99.90;;;;;;4992110;28;20042;-92
2022/12/13 02:57:35;;;;;;;67.35;18.27;;;0.00;99.90;;;;;;4992757;28;20026;-94
2022/12/13 03:00:15;;;;;;;57.75;17.55;;;0.00;99.90;;;;;;4992915;28;20232;-91
2022/12/13 03:02:53;;;;;;;63.08;17.02;;;0.00;99.90;;;;;;4992309;28;20031;-94
2022/12/13 03:09:06;;;;;;;65.32;17.20;;;0.00;99.90;;;;;;4991327;28;20088;-92
2022/12/13 03:14:36;;;;;;;59.35;17.17;;;0.00;99.90;;;;;;4993365;28;20081;-93
2022/12/13 03:17:06;;;;;;;67.03;17.77;;;0.10;99.90;;;;;;4992649;28;20121;-91
2022/12/13 03:19:32;;;;;;;60.25;16.35;;;0.00;99.90;;;;;;4992863;28;20027;-94
2022/12/13 03:21:57;;;;;;;63.35;17.35;;;0.00;99.90;;;;;;4992679;28;20058;-93
2022/12/13 03:24:23;;;;;;;67.85;17.88;;;0.00;99.90;;;;;;4991969;28;20058;-93
2022/12/13 03:26:49;;;;;;;56.60;17.60;;;0.10;99.90;;;;;;4992011;28;20141;-93
2022/12/13 03:29:15;;;;;;;59.42;19.08;;;0.00;99.90;;;;;;4992272;28;20030;-93
2022/12/13 03:31:41;;;;;;;68.80;18.77;;;0.10;99.90;;;;;;4992450;28;20022;-93
2022/12/13 03:34:07;;;;;;;56.33;19.02;;;0.00;99.90;;;;;;4991999;28;20038;-92
2022/12/13 03:36:33;;;;;;;66.72;19.33;;;0.10;99.90;;;;;;4993066;28;20029;-93
2022/12/13 03:38:58;;;;;;;76.07;22.13;;;0.00;99.90;;;;;;4992055;28;20045;-94
2022/12/13 03:41:30;;;;;;;67.65;19.60;;;0.00;99.90;;;;;;4992202;28;20033;-94
2022/12/13 03:43:57;;;;;;;63.72;19.35;;;0.00;99.90;;;;;;4993798;28;20054;-94
2022/12/13 03:46:23;;;;;;;68.97;20.63;;;0.00;99.90;;;;;;4991953;28;20125;-95
2022/12/13 03:48:49;;;;;;;67.00;20.58;;;0.00;99.90;;;;;;4992487;28;20452;-94
2022/12/13 03:51:15;;;;;;;65.82;18.15;;;0.10;99.90;;;;;;4993017;28;20022;-92
2022/12/13 03:53:40;;;;;;;72.60;20.75;;;0.10;99.90;;;;;;4991742;28;20129;-94
2022/12/13 03:56:06;;;;;;;74.32;20.55;;;0.10;99.90;;;;;;4997074;28;20023;-92
2022/12/13 03:58:33;;;;;;;66.15;19.92;;;0.10;99.90;;;;;;5001024;28;20026;-93
2022/12/13 04:00:58;;;;;;;59.70;18.25;;;0.10;99.90;;;;;;4992478;28;20031;-92
2022/12/13 04:03:24;;;;;;;64.82;19.67;;;0.10;99.90;;;;;;4991562;28;20121;-93
2022/12/13 04:05:50;;;;;;;66.47;19.08;;;0.10;99.90;;;;;;4992009;28;20431;-94
2022/12/13 04:08:15;;;;;;;70.78;22.73;;;0.10;99.90;;;;;;4992363;28;20323;-95
2022/12/13 04:10:41;;;;;;;59.15;19.05;;;0.10;99.90;;;;;;4992019;28;20657;-93
2022/12/13 04:15:52;;;;;;;71.05;20.95;;;0.20;99.90;;;;;;5000278;28;20074;-91
2022/12/13 04:18:18;;;;;;;70.95;20.05;;;0.10;99.90;;;;;;5003466;28;20026;-93
2022/12/13 04:20:44;;;;;;;75.18;20.70;;;0.10;99.90;;;;;;5002497;28;20038;-93
2022/12/13 04:23:10;;;;;;;69.43;22.70;;;0.10;99.90;;;;;;5001738;28;20044;-93
2022/12/13 04:25:37;;;;;;;72.15;20.42;;;0.20;99.90;;;;;;4997788;28;20125;-93
2022/12/13 04:28:03;;;;;;;73.38;20.08;;;0.20;99.90;;;;;;4996431;28;20101;-92
2022/12/13 04:30:28;;;;;;;75.95;21.30;;;0.10;99.90;;;;;;4996180;28;20069;-93
2022/12/13 04:32:55;;;;;;;71.10;20.08;;;0.20;99.90;;;;;;4995514;28;20045;-92
2022/12/13 04:35:21;;;;;;;61.60;17.90;;;0.20;99.90;;;;;;4996163;28;20129;-93
2022/12/13 04:37:47;;;;;;;74.63;21.90;;;0.20;99.90;;;;;;4995846;28;20065;-94
2022/12/13 04:40:13;;;;;;;64.97;18.55;;;0.20;99.90;;;;;;4997139;28;20122;-92
2022/12/13 04:42:38;;;;;;;70.53;20.65;;;0.20;99.90;;;;;;4996334;28;20026;-93
2022/12/13 04:45:05;;;;;;;65.80;19.33;;;0.20;99.90;;;;;;4994856;28;20022;-93
2022/12/13 04:47:31;;;;;;;81.43;20.35;;;0.20;99.90;;;;;;4996263;28;20483;-92
2022/12/13 04:49:56;;;;;;;64.25;18.67;;;0.20;99.90;;;;;;4995859;28;20033;-92
2022/12/13 04:52:22;;;;;;;71.22;20.02;;;0.20;99.90;;;;;;4994837;28;20036;-92
2022/12/13 04:54:47;;;;;;;70.95;20.55;;;0.20;99.90;;;;;;4994494;28;20165;-92
2022/12/13 04:57:13;;;;;;;61.03;18.10;;;0.20;99.90;;;;;;4994487;28;20077;-94
2022/12/13 04:59:39;;;;;;;69.30;19.02;;;0.20;99.90;;;;;;4994554;28;20116;-93
2022/12/13 05:02:06;;;;;;;76.00;21.48;;;0.20;99.90;;;;;;4995084;28;20078;-95
2022/12/13 05:04:31;;;;;;;60.85;18.40;;;0.20;99.90;;;;;;4995126;28;20530;-94
2022/12/13 05:06:57;;;;;;;77.82;21.33;;;0.20;99.90;;;;;;4995325;28;20035;-93
2022/12/13 05:09:23;;;;;;;71.05;20.80;;;0.20;99.90;;;;;;4994571;28;20459;-92
2022/12/13 05:11:49;;;;;;;67.95;20.50;;;0.20;99.90;;;;;;4994052;28;20034;-93
2022/12/13 05:14:15;;;;;;;64.35;20.50;;;0.20;99.90;;;;;;4993846;28;20035;-92
2022/12/13 05:16:40;;;;;;;67.82;19.58;;;0.20;99.90;;;;;;4994306;28;20037;-93
2022/12/13 05:19:06;;;;;;;53.28;16.23;;;0.20;99.90;;;;;;4994414;28;20088;-93
2022/12/13 05:21:33;;;;;;;58.15;18.70;;;0.20;99.90;;;;;;4994455;28;20488;-94
2022/12/13 05:24:02;;;;;;;50.60;17.02;;;0.30;99.90;;;;;;4992830;28;20037;-93
2022/12/13 05:26:28;;;;;;;59.83;18.15;;;0.30;99.90;;;;;;4994330;28;20054;-93
2022/12/13 05:28:57;;;;;;;47.22;17.00;;;0.40;99.90;;;;;;4995237;28;20038;-92
2022/12/13 05:31:23;;;;;;;52.72;18.05;;;0.40;99.90;;;;;;4993552;28;20018;-92
2022/12/13 05:33:49;;;;;;;44.67;15.85;;;0.40;99.90;;;;;;4994153;28;20026;-93
2022/12/13 05:36:14;;;;;;;55.78;16.63;;;0.40;99.90;;;;;;4994169;28;20077;-91
2022/12/13 05:38:40;;;;;;;50.28;17.27;;;0.40;99.90;;;;;;4994233;28;20106;-89
2022/12/13 05:41:06;;;;;;;42.70;15.25;;;0.40;99.90;;;;;;4994349;28;20237;-90
2022/12/13 05:43:32;;;;;;;51.03;17.15;;;0.40;99.90;;;;;;4994894;28;20071;-93
2022/12/13 05:45:58;;;;;;;47.00;16.75;;;0.40;99.90;;;;;;4993325;28;20058;-94
2022/12/13 05:48:23;;;;;;;44.45;15.35;;;0.40;99.90;;;;;;4993525;28;20030;-93
2022/12/13 05:50:49;;;;;;;45.65;16.13;;;0.40;99.90;;;;;;4993911;28;20080;-93
2022/12/13 05:53:15;;;;;;;39.90;15.18;;;0.40;99.90;;;;;;4993710;28;20030;-93
2022/12/13 05:55:41;;;;;;;49.67;15.73;;;0.40;99.90;;;;;;4993739;28;20060;-92
2022/12/13 05:58:07;;;;;;;45.28;15.25;;;0.40;99.90;;;;;;4993239;28;20528;-93
2022/12/13 06:00:32;;;;;;;44.92;14.52;;;0.40;99.90;;;;;;4993538;28;20045;-91
2022/12/13 06:02:59;;;;;;;42.85;15.05;;;0.40;99.90;;;;;;4993425;28;20018;-92
2022/12/13 06:05:24;;;;;;;39.97;14.52;;;0.30;99.90;;;;;;4993373;28;20034;-92
2022/12/13 06:07:52;;;;;;;47.05;16.83;;;0.40;99.90;;;;;;4994062;28;20026;-94
2022/12/13 06:10:18;;;;;;;41.30;15.52;;;0.40;99.90;;;;;;4995918;28;20026;-93
2022/12/13 06:12:43;;;;;;;41.28;14.23;;;0.40;99.90;;;;;;5000048;28;20026;-91
2022/12/13 06:15:09;;;;;;;46.38;16.67;;;0.40;99.90;;;;;;4996941;28;20034;-93
2022/12/13 06:17:35;;;;;;;47.92;15.70;;;0.40;99.90;;;;;;4992900;28;20077;-93
2022/12/13 06:20:03;;;;;;;40.10;14.13;;;0.40;99.90;;;;;;4992483;28;20499;-93
2022/12/13 06:22:29;;;;;;;48.17;16.63;;;0.40;99.90;;;;;;4993071;28;20049;-93
2022/12/13 06:24:54;;;;;;;43.20;16.45;;;0.50;99.90;;;;;;4998307;28;20094;-93
2022/12/13 06:27:20;;;;;;;43.40;14.90;;;0.40;99.90;;;;;;4999842;28;20089;-91
2022/12/13 06:29:46;;;;;;;48.25;16.52;;;0.40;99.90;;;;;;5004426;28;20030;-93
2022/12/13 06:32:11;;;;;;;45.47;15.30;;;0.40;99.90;;;;;;5008244;28;20034;-91
2022/12/13 06:34:37;;;;;;;39.65;14.50;;;0.40;99.90;;;;;;5008591;28;20077;-93
2022/12/13 06:37:06;;;;;;;45.60;14.73;;;0.40;99.90;;;;;;5002911;28;20034;-93
2022/12/13 06:39:33;;;;;;;43.70;14.90;;;0.40;99.90;;;;;;5000784;28;20027;-92
2022/12/13 06:41:58;;;;;;;41.38;15.32;;;0.40;99.90;;;;;;4993539;28;20034;-91
2022/12/13 06:44:24;;;;;;;47.25;15.85;;;0.40;99.90;;;;;;4993803;28;20022;-94
2022/12/13 06:46:50;;;;;;;48.63;15.15;;;0.40;99.90;;;;;;4994056;28;20038;-91
2022/12/13 06:49:15;;;;;;;44.88;15.63;;;0.30;99.90;;;;;;4992127;28;20553;-92
2022/12/13 06:51:41;;;;;;;50.40;16.73;;;0.30;99.90;;;;;;4991818;28;20031;-91
2022/12/13 06:54:06;;;;;;;44.35;15.75;;;0.30;99.90;;;;;;4991425;28;20073;-92
2022/12/13 06:56:32;;;;;;;44.90;14.60;;;0.30;99.90;;;;;;4992297;28;20026;-92
2022/12/13 06:58:58;;;;;;;40.58;14.40;;;0.30;99.90;;;;;;4991943;28;20056;-94
2022/12/13 07:01:24;;;;;;;44.88;14.80;;;0.20;99.90;;;;;;4991761;28;20034;-94
2022/12/13 07:03:49;;;;;;;41.58;14.30;;;0.20;99.90;;;;;;4992502;28;20371;-95
2022/12/13 07:06:18;;;;;;;38.72;14.23;;;0.20;99.90;;;;;;4991780;28;20034;-94
2022/12/13 07:08:48;;;;;;;45.75;15.75;;;0.20;99.90;;;;;;4991525;28;20018;-94
2022/12/13 07:11:16;;;;;;;45.42;15.63;;;0.20;99.90;;;;;;4981390;28;20058;-95
2022/12/13 07:13:42;;;;;;;46.33;14.63;;;0.20;99.90;;;;;;4991040;28;20097;-93
2022/12/13 07:16:09;;;;;;;42.33;14.70;;;0.20;99.90;;;;;;4992534;28;20058;-93
2022/12/13 07:18:35;;;;;;;50.38;17.30;;;0.20;99.90;;;;;;4992150;28;20593;-95
2022/12/13 07:21:07;;;;;;;46.03;15.93;;;0.20;99.90;;;;;;4991783;28;20034;-91
2022/12/13 07:23:34;;;;;;;45.03;16.30;;;0.20;99.90;;;;;;4995266;28;20081;-93
2022/12/13 07:26:00;;;;;;;45.58;15.85;;;0.20;99.90;;;;;;5001104;28;20093;-93
2022/12/13 07:28:25;;;;;;;42.45;13.68;;;0.20;99.90;;;;;;5003280;28;20170;-93
2022/12/13 07:30:51;;;;;;;43.83;13.65;;;0.10;99.90;;;;;;5003276;28;20046;-92
2022/12/13 07:33:17;;;;;;;39.63;13.98;;;0.10;99.90;;;;;;5001035;28;20458;-93
2022/12/13 07:35:43;;;;;;;44.60;13.98;;;0.10;99.90;;;;;;4997299;28;20030;-92
2022/12/13 07:38:10;;;;;;;46.95;14.85;;;0.10;99.90;;;;;;4996056;28;20472;-93
2022/12/13 07:40:38;;;;;;;47.00;16.08;;;0.10;99.90;;;;;;4994907;28;20027;-93
2022/12/13 07:43:04;;;;;;;48.63;14.82;;;0.10;99.90;;;;;;4995216;28;20026;-93
2022/12/13 07:45:30;;;;;;;46.58;14.30;;;0.10;99.90;;;;;;4995233;28;20019;-93
2022/12/13 07:47:55;;;;;;;41.80;13.38;;;0.10;99.90;;;;;;4997013;28;20037;-96
2022/12/13 07:50:21;;;;;;;39.95;13.98;;;0.00;99.90;;;;;;4995181;28;20054;-95
2022/12/13 07:52:48;;;;;;;45.80;14.85;;;0.10;99.90;;;;;;4995784;28;20388;-93
2022/12/13 07:55:15;;;;;;;39.80;14.25;;;0.00;99.90;;;;;;4995997;28;20053;-93
2022/12/13 07:57:40;;;;;;;48.00;15.48;;;0.10;99.90;;;;;;4997542;28;20084;-92
2022/12/13 08:00:07;;;;;;;38.30;14.45;;;0.10;99.90;;;;;;5001756;28;20097;-93
2022/12/13 08:02:32;;;;;;;49.63;14.50;;;0.00;99.90;;;;;;5006452;28;20041;-93
2022/12/13 08:04:58;;;;;;;41.20;13.95;;;0.10;99.90;;;;;;5003513;28;20443;-92
2022/12/13 08:07:23;;;;;;;43.85;13.32;;;0.10;99.90;;;;;;4999973;28;20054;-93
2022/12/13 08:09:49;;;;;;;49.40;15.57;;;0.10;99.90;;;;;;4997387;28;20088;-91
2022/12/13 08:12:15;;;;;;;46.80;15.15;;;0.10;99.90;;;;;;4997617;28;20035;-93
2022/12/13 08:14:40;;;;;;;54.95;16.35;;;0.10;99.90;;;;;;4998047;28;20061;-89
2022/12/13 08:17:06;;;;;;;41.15;14.45;;;0.00;99.90;;;;;;4997422;28;20033;-91
2022/12/13 08:19:32;;;;;;;46.97;15.32;;;0.00;99.90;;;;;;4996288;28;20030;-91
2022/12/13 08:21:58;;;;;;;50.03;16.15;;;0.10;99.90;;;;;;4997853;28;20486;-90
2022/12/13 08:24:25;;;;;;;53.58;15.85;;;0.20;99.90;;;;;;5001354;28;20026;-92
2022/12/13 08:26:51;;;;;;;58.30;19.35;;;0.30;99.90;;;;;;5000506;28;20050;-93
2022/12/13 08:29:17;;;;;;;50.22;17.15;;;0.40;99.90;;;;;;5001371;28;20486;-92
2022/12/13 08:31:42;;;;;;;52.10;17.05;;;0.60;99.90;;;;;;4996377;28;20014;-91
2022/12/13 08:34:08;;;;;;;47.75;15.50;;;0.70;99.90;;;;;;4995864;28;20050;-93
2022/12/13 08:36:33;;;;;;;43.42;14.50;;;0.80;99.90;;;;;;4995316;28;20472;-91
2022/12/13 08:39:01;;;;;;;46.90;15.73;;;0.90;99.90;;;;;;4996779;28;20018;-91
2022/12/13 08:41:28;;;;;;;47.38;14.70;;;1.00;99.90;;;;;;4997028;28;20023;-91
2022/12/13 08:43:53;;;;;;;45.90;15.20;;;1.00;99.90;;;;;;4997761;28;20027;-90
2022/12/13 08:46:19;;;;;;;43.53;14.75;;;1.00;99.90;;;;;;4994983;28;20033;-89
2022/12/13 08:48:45;;;;;;;45.13;14.80;;;1.10;99.90;;;;;;4995200;28;20388;-88
2022/12/13 08:51:13;;;;;;;45.80;16.70;;;1.00;99.90;;;;;;4994826;28;20035;-89
2022/12/13 08:53:39;;;;;;;42.47;14.45;;;1.00;99.90;;;;;;4996219;28;20391;-89
2022/12/13 08:56:09;;;;;;;49.42;15.63;;;1.00;99.90;;;;;;4996482;28;20034;-90
2022/12/13 08:58:36;;;;;;;43.15;14.68;;;0.90;99.90;;;;;;4995037;28;20073;-89
2022/12/13 09:01:05;;;;;;;36.78;13.77;;;0.80;99.90;;;;;;4995203;28;20537;-88
2022/12/13 09:03:31;;;;;;;42.15;16.13;;;0.70;99.90;;;;;;4994243;28;20027;-89
2022/12/13 09:05:57;;;;;;;35.40;13.43;;;0.70;99.90;;;;;;4995709;28;20089;-88
2022/12/13 09:08:22;;;;;;;46.70;15.48;;;0.60;99.90;;;;;;4993613;28;20102;-89
2022/12/13 09:11:01;;;;;;;49.22;16.65;;;0.40;99.90;;;;;;4994836;28;20480;-90
2022/12/13 09:13:29;;;;;;;42.00;14.45;;;0.40;99.90;;;;;;4993566;28;20053;-89
2022/12/13 09:15:54;;;;;;;43.13;14.65;;;0.30;99.90;;;;;;4993362;28;20025;-89
2022/12/13 09:18:20;;;;;;;36.83;14.63;;;0.30;99.90;;;;;;4993762;28;20026;-92
2022/12/13 09:20:45;;;;;;;41.83;15.52;;;0.30;99.90;;;;;;4994514;28;20037;-91
2022/12/13 09:23:11;;;;;;;38.95;15.63;;;0.30;99.90;;;;;;4994508;28;20026;-92
2022/12/13 09:25:37;;;;;;;44.00;16.00;;;0.20;99.90;;;;;;4993240;28;20030;-90
2022/12/13 09:28:06;;;;;;;40.08;15.07;;;0.20;99.90;;;;;;4994807;28;20483;-91
2022/12/13 09:30:32;;;;;;;46.38;15.93;;;0.20;99.90;;;;;;4994560;28;20081;-91
2022/12/13 09:32:58;;;;;;;42.15;14.88;;;0.10;99.90;;;;;;4993468;28;20022;-91
2022/12/13 09:35:23;;;;;;;41.72;15.38;;;0.10;99.90;;;;;;4994876;28;20034;-91
2022/12/13 09:37:49;;;;;;;40.28;14.88;;;0.10;99.90;;;;;;5001928;28;20014;-90
2022/12/13 09:40:22;;;;;;;38.17;13.85;;;0.10;99.90;;;;;;5002846;28;20034;-90
2022/12/13 09:42:50;;;;;;;39.88;15.50;;;0.00;99.90;;;;;;4996274;28;20022;-92
2022/12/13 09:45:16;;;;;;;44.92;15.25;;;0.00;99.90;;;;;;4986109;28;20027;-91
2022/12/13 09:47:44;;;;;;;44.38;14.77;;;0.00;99.90;;;;;;4997534;28;20022;-90
2022/12/13 09:50:27;;;;;;;40.05;14.90;;;0.00;99.90;;;;;;4994238;28;20057;-92
2022/12/13 09:52:54;;;;;;;43.60;15.23;;;0.00;99.90;;;;;;4993134;28;20089;-93
2022/12/13 09:55:29;;;;;;;44.40;15.85;;;0.00;99.90;;;;;;4995324;28;20125;-93
2022/12/13 09:57:56;;;;;;;44.38;14.57;;;0.00;99.90;;;;;;4997147;28;20022;-92
2022/12/13 10:00:26;;;;;;;51.38;17.25;;;0.00;99.90;;;;;;4995610;28;20483;-92
2022/12/13 10:02:57;;;;;;;45.03;16.25;;;0.10;99.90;;;;;;5006914;28;20018;-90
2022/12/13 10:05:45;;;;;;;46.65;18.90;;;0.10;99.90;;;;;;5019376;28;20018;-92
2022/12/13 10:08:24;;;;;;;47.60;16.38;;;0.00;99.90;;;;;;5018846;28;20034;-93
2022/12/13 10:10:55;;;;;;;45.03;18.10;;;0.10;99.90;;;;;;5018804;28;20011;-93
2022/12/13 10:13:36;;;;;;;43.95;16.70;;;0.10;99.90;;;;;;5016964;28;20026;-93
2022/12/13 10:16:27;;;;;;;46.88;16.30;;;0.10;99.90;;;;;;5018152;28;20086;-94
2022/12/13 10:18:56;;;;;;;38.97;13.95;;;0.10;99.90;;;;;;5016853;28;20030;-94
2022/12/13 10:21:31;;;;;;;38.75;14.20;;;0.10;99.90;;;;;;5017606;28;20025;-92
2022/12/13 10:24:20;;;;;;;36.15;14.80;;;0.20;99.90;;;;;;5015862;28;20022;-93
2022/12/13 10:26:46;;;;;;;36.80;13.68;;;0.10;99.90;;;;;;5017678;28;20054;-93
2022/12/13 10:29:17;;;;;;;44.13;15.27;;;0.20;99.90;;;;;;5017787;28;20049;-93
2022/12/13 10:31:50;;;;;;;43.30;16.38;;;0.20;99.90;;;;;;5018239;28;20023;-93
2022/12/13 10:34:43;;;;;;;41.40;16.23;;;0.20;99.90;;;;;;5018011;28;20036;-93
2022/12/13 10:37:31;;;;;;;36.53;14.10;;;0.20;99.90;;;;;;5017504;28;20025;-92
2022/12/13 10:39:59;;;;;;;34.97;14.30;;;0.30;99.90;;;;;;5018146;28;20031;-93
2022/12/13 10:42:26;;;;;;;36.53;14.90;;;0.30;99.90;;;;;;5017928;28;20018;-93
2022/12/13 10:45:14;;;;;;;37.30;14.77;;;0.30;99.90;;;;;;5018077;28;20022;-93
2022/12/13 10:47:44;;;;;;;36.95;15.23;;;0.30;99.90;;;;;;5018221;28;20038;-92
2022/12/13 10:50:33;;;;;;;43.17;16.77;;;0.30;99.90;;;;;;5018062;28;20011;-92
2022/12/13 10:53:03;;;;;;;35.05;14.00;;;0.30;99.90;;;;;;5018236;28;20097;-93
2022/12/13 10:55:41;;;;;;;32.93;12.80;;;0.30;99.90;;;;;;5018117;28;20026;-94
2022/12/13 10:58:19;;;;;;;31.38;13.85;;;0.30;99.90;;;;;;5017601;28;20086;-93
2022/12/13 11:00:48;;;;;;;33.05;12.98;;;0.30;99.90;;;;;;5017968;28;20053;-93
2022/12/13 11:03:33;;;;;;;28.05;11.70;;;0.30;99.90;;;;;;5018574;28;20009;-92
2022/12/13 11:06:16;;;;;;;31.65;13.00;;;0.40;99.90;;;;;;5018064;28;20018;-95
2022/12/13 11:08:46;;;;;;;31.25;12.85;;;0.50;99.90;;;;;;5017843;28;20023;-95
2022/12/13 11:11:22;;;;;;;32.75;13.30;;;0.60;99.90;;;;;;5017904;28;20030;-93
2022/12/13 11:14:02;;;;;;;32.00;12.60;;;0.70;99.90;;;;;;5017572;28;20075;-93
2022/12/13 11:16:40;;;;;;;33.63;12.93;;;0.80;99.90;;;;;;5017968;28;20038;-93
2022/12/13 11:19:42;;;;;;;29.90;12.63;;;1.00;99.90;;;;;;5017749;28;20018;-95
2022/12/13 11:22:17;;;;;;;31.67;13.77;;;1.30;99.90;;;;;;5014125;28;20030;-95
2022/12/13 11:25:02;;;;;;;26.30;11.70;;;1.60;99.90;;;;;;5016830;28;20022;-94
2022/12/13 11:27:52;;;;;;;26.52;12.25;;;1.80;99.90;;;;;;5021609;28;20065;-93
2022/12/13 11:30:48;;;;;;;27.50;11.30;;;2.10;99.90;;;;;;5021586;28;20031;-94
2022/12/13 11:33:26;;;;;;;25.60;10.88;;;2.30;99.90;;;;;;5018634;28;20038;-94
2022/12/13 11:36:34;;;;;;;24.45;11.15;;;2.70;99.90;;;;;;5016051;28;20038;-94
2022/12/13 11:39:27;;;;;;;29.65;12.23;;;3.30;99.90;;;;;;5005458;28;20030;-96
2022/12/13 11:42:12;;;;;;;25.52;12.02;;;3.80;99.90;;;;;;5014840;28;20081;-96
2022/12/13 11:45:11;;;;;;;21.77;10.85;;;4.20;99.90;;;;;;5010226;28;20038;-95
2022/12/13 11:48:09;;;;;;;25.48;10.88;;;4.50;99.90;;;;;;5013443;28;20054;-95
2022/12/13 11:50:44;;;;;;;25.70;11.65;;;4.60;99.90;;;;;;5011128;28;20042;-94
2022/12/13 11:53:47;;;;;;;23.27;10.98;;;4.60;99.90;;;;;;5010653;28;20027;-95
2022/12/13 11:56:24;;;;;;;23.10;11.35;;;4.60;99.90;;;;;;5008115;28;20027;-95
2022/12/13 11:59:21;;;;;;;29.00;12.75;;;4.50;99.90;;;;;;5004197;28;20081;-94
2022/12/13 12:01:56;;;;;;;26.58;12.27;;;4.40;99.90;;;;;;5005606;28;20030;-94
2022/12/13 12:04:31;;;;;;;27.05;13.52;;;4.10;99.90;;;;;;4999824;28;20019;-96
2022/12/13 12:07:01;;;;;;;25.33;12.43;;;3.90;99.90;;;;;;4999314;28;20121;-95
2022/12/13 12:09:28;;;;;;;25.55;11.55;;;3.70;99.90;;;;;;5001876;28;20074;-95
2022/12/13 12:12:24;;;;;;;25.35;12.48;;;3.50;99.90;;;;;;4998996;28;20022;-95
2022/12/13 12:15:14;;;;;;;27.83;12.10;;;3.40;99.90;;;;;;4991555;28;20134;-95
2022/12/13 12:17:41;;;;;;;30.50;13.80;;;3.30;99.90;;;;;;5001176;28;20034;-95
2022/12/13 12:20:13;;;;;;;29.25;13.75;;;3.20;99.90;;;;;;4997827;28;20309;-96
2022/12/13 12:22:42;;;;;;;33.15;15.38;;;3.10;99.90;;;;;;5001138;28;20034;-96
2022/12/13 12:25:46;;;;;;;34.78;15.77;;;3.00;99.90;;;;;;5001925;28;20034;-94
2022/12/13 12:28:22;;;;;;;31.35;15.38;;;3.00;99.90;;;;;;4943176;29;20059;-95
2022/12/13 12:31:12;;;;;;;33.85;15.80;;;3.00;99.90;;;;;;4942755;29;20032;-95
2022/12/13 12:33:56;;;;;;;28.50;13.60;;;3.00;99.90;;;;;;4942554;29;20555;-95
2022/12/13 12:36:45;;;;;;;31.10;14.02;;;3.00;99.90;;;;;;4942260;28;20042;-95
2022/12/13 12:39:33;;;;;;;32.13;13.65;;;3.00;99.90;;;;;;4942274;29;20023;-95
2022/12/13 12:42:23;;;;;;;31.63;14.68;;;2.90;99.90;;;;;;4942268;29;20037;-94
2022/12/13 12:44:51;;;;;;;35.33;15.53;;;2.90;99.90;;;;;;4942162;29;20083;-94
2022/12/13 12:47:17;;;;;;;27.80;12.50;;;2.80;99.90;;;;;;4943017;29;20031;-95
2022/12/13 12:50:09;;;;;;;28.27;11.85;;;2.70;99.90;;;;;;4942983;29;20069;-95
2022/12/13 12:52:50;;;;;;;27.75;12.65;;;2.70;99.90;;;;;;4944364;29;20027;-94
2022/12/13 12:55:25;;;;;;;30.95;13.55;;;2.70;99.90;;;;;;4947959;29;20039;-94
2022/12/13 12:58:14;;;;;;;34.00;13.40;;;2.70;99.90;;;;;;4945935;29;20056;-95
2022/12/13 13:01:01;;;;;;;33.67;14.88;;;2.70;99.90;;;;;;4942966;29;20107;-96
2022/12/13 13:03:29;;;;;;;33.05;14.77;;;2.80;99.90;;;;;;4999475;28;20066;-95